sensor_id;sensor_type;location;lat;lon;timestamp;P1;durP1;ratioP1;P2;durP2;ratioP2
9461;SDS011;4769;42.660;23.262;2024-02-26T00:01:49;15.97;;;12.50;;
9461;SDS011;4769;42.660;23.262;2024-02-26T00:04:14;14.83;;;11.87;;
9461;SDS011;4769;42.660;23.262;2024-02-26T00:06:40;14.20;;;11.53;;
9461;SDS011;4769;42.660;23.262;2024-02-26T00:09:06;21.40;;;13.30;;
9461;SDS011;4769;42.660;23.262;2024-02-26T00:11:32;16.93;;;13.27;;
9461;SDS011;4769;42.660;23.262;2024-02-26T00:13:57;18.27;;;14.30;;
9461;SDS011;4769;42.660;23.262;2024-02-26T00:16:23;16.07;;;13.93;;
9461;SDS011;4769;42.660;23.262;2024-02-26T00:18:49;17.90;;;14.30;;
9461;SDS011;4769;42.660;23.262;2024-02-26T00:21:14;15.73;;;12.80;;
9461;SDS011;4769;42.660;23.262;2024-02-26T00:23:40;16.93;;;11.93;;
9461;SDS011;4769;42.660;23.262;2024-02-26T00:26:05;15.77;;;11.90;;
9461;SDS011;4769;42.660;23.262;2024-02-26T00:28:31;17.83;;;11.47;;
9461;SDS011;4769;42.660;23.262;2024-02-26T00:30:56;16.10;;;10.93;;
9461;SDS011;4769;42.660;23.262;2024-02-26T00:33:22;15.87;;;12.90;;
9461;SDS011;4769;42.660;23.262;2024-02-26T00:35:48;14.37;;;11.03;;
9461;SDS011;4769;42.660;23.262;2024-02-26T00:38:14;13.20;;;9.60;;
9461;SDS011;4769;42.660;23.262;2024-02-26T00:40:39;11.47;;;9.07;;
9461;SDS011;4769;42.660;23.262;2024-02-26T00:43:06;11.73;;;9.53;;
9461;SDS011;4769;42.660;23.262;2024-02-26T00:45:31;12.20;;;9.73;;
9461;SDS011;4769;42.660;23.262;2024-02-26T00:47:57;13.67;;;12.23;;
9461;SDS011;4769;42.660;23.262;2024-02-26T00:50:23;17.73;;;12.73;;
9461;SDS011;4769;42.660;23.262;2024-02-26T00:52:48;18.70;;;14.17;;
9461;SDS011;4769;42.660;23.262;2024-02-26T00:55:13;16.07;;;13.20;;
9461;SDS011;4769;42.660;23.262;2024-02-26T00:57:39;16.13;;;13.07;;
9461;SDS011;4769;42.660;23.262;2024-02-26T01:00:06;16.73;;;12.30;;
9461;SDS011;4769;42.660;23.262;2024-02-26T01:02:33;15.60;;;12.23;;
9461;SDS011;4769;42.660;23.262;2024-02-26T01:04:59;17.63;;;12.10;;
9461;SDS011;4769;42.660;23.262;2024-02-26T01:07:25;17.27;;;12.50;;
9461;SDS011;4769;42.660;23.262;2024-02-26T01:09:50;19.27;;;13.50;;
9461;SDS011;4769;42.660;23.262;2024-02-26T01:12:15;15.40;;;13.10;;
9461;SDS011;4769;42.660;23.262;2024-02-26T01:14:41;17.37;;;13.97;;
9461;SDS011;4769;42.660;23.262;2024-02-26T01:17:06;19.97;;;15.03;;
9461;SDS011;4769;42.660;23.262;2024-02-26T01:19:32;19.20;;;15.00;;
9461;SDS011;4769;42.660;23.262;2024-02-26T01:21:57;21.07;;;14.93;;
9461;SDS011;4769;42.660;23.262;2024-02-26T01:24:22;20.03;;;15.70;;
9461;SDS011;4769;42.660;23.262;2024-02-26T01:26:48;18.80;;;15.00;;
9461;SDS011;4769;42.660;23.262;2024-02-26T01:29:13;19.87;;;15.77;;
9461;SDS011;4769;42.660;23.262;2024-02-26T01:31:39;19.53;;;14.20;;
9461;SDS011;4769;42.660;23.262;2024-02-26T01:34:04;18.97;;;14.20;;
9461;SDS011;4769;42.660;23.262;2024-02-26T01:36:29;17.63;;;14.07;;
9461;SDS011;4769;42.660;23.262;2024-02-26T01:38:55;19.07;;;14.97;;
9461;SDS011;4769;42.660;23.262;2024-02-26T01:41:20;17.90;;;14.30;;
9461;SDS011;4769;42.660;23.262;2024-02-26T01:43:45;17.73;;;13.13;;
9461;SDS011;4769;42.660;23.262;2024-02-26T01:46:13;18.87;;;14.10;;
9461;SDS011;4769;42.660;23.262;2024-02-26T01:48:43;17.73;;;14.63;;
9461;SDS011;4769;42.660;23.262;2024-02-26T01:51:10;18.43;;;14.30;;
9461;SDS011;4769;42.660;23.262;2024-02-26T01:53:39;18.83;;;14.87;;
9461;SDS011;4769;42.660;23.262;2024-02-26T01:56:05;17.17;;;14.67;;
9461;SDS011;4769;42.660;23.262;2024-02-26T01:58:31;18.20;;;15.43;;
9461;SDS011;4769;42.660;23.262;2024-02-26T02:00:59;20.97;;;15.57;;
9461;SDS011;4769;42.660;23.262;2024-02-26T02:03:25;17.90;;;15.13;;
9461;SDS011;4769;42.660;23.262;2024-02-26T02:05:51;18.07;;;15.33;;
9461;SDS011;4769;42.660;23.262;2024-02-26T02:08:16;19.70;;;15.67;;
9461;SDS011;4769;42.660;23.262;2024-02-26T02:10:42;18.23;;;15.20;;
9461;SDS011;4769;42.660;23.262;2024-02-26T02:13:08;20.20;;;17.47;;
9461;SDS011;4769;42.660;23.262;2024-02-26T02:15:34;23.40;;;19.40;;
9461;SDS011;4769;42.660;23.262;2024-02-26T02:17:59;25.60;;;19.13;;
9461;SDS011;4769;42.660;23.262;2024-02-26T02:20:26;22.73;;;16.83;;
9461;SDS011;4769;42.660;23.262;2024-02-26T02:22:58;18.58;;;16.48;;
9461;SDS011;4769;42.660;23.262;2024-02-26T02:25:23;21.97;;;16.67;;
9461;SDS011;4769;42.660;23.262;2024-02-26T02:27:48;19.77;;;15.77;;
9461;SDS011;4769;42.660;23.262;2024-02-26T02:30:14;18.63;;;15.80;;
9461;SDS011;4769;42.660;23.262;2024-02-26T02:32:41;19.03;;;16.13;;
9461;SDS011;4769;42.660;23.262;2024-02-26T02:35:07;21.97;;;16.80;;
9461;SDS011;4769;42.660;23.262;2024-02-26T02:37:32;19.50;;;16.20;;
9461;SDS011;4769;42.660;23.262;2024-02-26T02:39:58;18.88;;;16.10;;
9461;SDS011;4769;42.660;23.262;2024-02-26T02:42:23;19.57;;;15.23;;
9461;SDS011;4769;42.660;23.262;2024-02-26T02:44:49;20.35;;;15.93;;
9461;SDS011;4769;42.660;23.262;2024-02-26T02:47:14;19.33;;;14.90;;
9461;SDS011;4769;42.660;23.262;2024-02-26T02:49:40;20.73;;;17.00;;
9461;SDS011;4769;42.660;23.262;2024-02-26T02:52:05;20.10;;;16.60;;
9461;SDS011;4769;42.660;23.262;2024-02-26T02:54:31;19.93;;;16.07;;
9461;SDS011;4769;42.660;23.262;2024-02-26T02:56:56;20.17;;;15.30;;
9461;SDS011;4769;42.660;23.262;2024-02-26T02:59:21;19.77;;;16.45;;
9461;SDS011;4769;42.660;23.262;2024-02-26T03:01:47;16.35;;;14.55;;
9461;SDS011;4769;42.660;23.262;2024-02-26T03:04:12;19.33;;;15.30;;
9461;SDS011;4769;42.660;23.262;2024-02-26T03:06:38;20.90;;;15.03;;
9461;SDS011;4769;42.660;23.262;2024-02-26T03:09:03;25.00;;;17.00;;
9461;SDS011;4769;42.660;23.262;2024-02-26T03:11:28;19.95;;;16.38;;
9461;SDS011;4769;42.660;23.262;2024-02-26T03:13:54;21.63;;;15.50;;
9461;SDS011;4769;42.660;23.262;2024-02-26T03:16:20;19.37;;;15.90;;
9461;SDS011;4769;42.660;23.262;2024-02-26T03:18:45;21.42;;;17.27;;
9461;SDS011;4769;42.660;23.262;2024-02-26T03:21:11;21.30;;;16.83;;
9461;SDS011;4769;42.660;23.262;2024-02-26T03:23:36;22.40;;;17.60;;
9461;SDS011;4769;42.660;23.262;2024-02-26T03:26:05;20.50;;;17.03;;
9461;SDS011;4769;42.660;23.262;2024-02-26T03:28:30;22.47;;;17.00;;
9461;SDS011;4769;42.660;23.262;2024-02-26T03:30:58;19.63;;;16.53;;
9461;SDS011;4769;42.660;23.262;2024-02-26T03:33:24;20.03;;;16.53;;
9461;SDS011;4769;42.660;23.262;2024-02-26T03:35:49;18.27;;;16.10;;
9461;SDS011;4769;42.660;23.262;2024-02-26T03:38:15;18.50;;;15.70;;
9461;SDS011;4769;42.660;23.262;2024-02-26T03:40:40;19.13;;;15.60;;
9461;SDS011;4769;42.660;23.262;2024-02-26T03:43:05;17.48;;;15.05;;
9461;SDS011;4769;42.660;23.262;2024-02-26T03:45:32;23.47;;;15.27;;
9461;SDS011;4769;42.660;23.262;2024-02-26T03:47:58;20.03;;;15.10;;
9461;SDS011;4769;42.660;23.262;2024-02-26T03:50:23;19.67;;;14.70;;
9461;SDS011;4769;42.660;23.262;2024-02-26T03:52:49;18.73;;;14.57;;
9461;SDS011;4769;42.660;23.262;2024-02-26T03:55:14;18.47;;;14.50;;
9461;SDS011;4769;42.660;23.262;2024-02-26T03:57:40;19.67;;;15.77;;
9461;SDS011;4769;42.660;23.262;2024-02-26T04:00:06;18.23;;;14.47;;
9461;SDS011;4769;42.660;23.262;2024-02-26T04:02:32;17.80;;;14.13;;
9461;SDS011;4769;42.660;23.262;2024-02-26T04:04:57;18.27;;;13.70;;
9461;SDS011;4769;42.660;23.262;2024-02-26T04:07:24;15.07;;;12.23;;
9461;SDS011;4769;42.660;23.262;2024-02-26T04:09:49;16.27;;;12.63;;
9461;SDS011;4769;42.660;23.262;2024-02-26T04:12:15;19.07;;;14.07;;
9461;SDS011;4769;42.660;23.262;2024-02-26T04:14:40;21.20;;;16.03;;
9461;SDS011;4769;42.660;23.262;2024-02-26T04:17:05;21.30;;;16.67;;
9461;SDS011;4769;42.660;23.262;2024-02-26T04:19:31;15.77;;;13.33;;
9461;SDS011;4769;42.660;23.262;2024-02-26T04:21:56;11.83;;;10.10;;
9461;SDS011;4769;42.660;23.262;2024-02-26T04:24:22;13.03;;;10.47;;
9461;SDS011;4769;42.660;23.262;2024-02-26T04:26:47;16.93;;;11.53;;
9461;SDS011;4769;42.660;23.262;2024-02-26T04:29:14;17.37;;;12.33;;
9461;SDS011;4769;42.660;23.262;2024-02-26T04:31:40;18.35;;;13.55;;
9461;SDS011;4769;42.660;23.262;2024-02-26T04:34:07;17.25;;;13.45;;
9461;SDS011;4769;42.660;23.262;2024-02-26T04:36:33;17.75;;;15.20;;
9461;SDS011;4769;42.660;23.262;2024-02-26T04:38:58;18.50;;;15.30;;
9461;SDS011;4769;42.660;23.262;2024-02-26T04:41:23;24.37;;;15.80;;
9461;SDS011;4769;42.660;23.262;2024-02-26T04:43:49;20.13;;;14.57;;
9461;SDS011;4769;42.660;23.262;2024-02-26T04:46:14;20.97;;;14.77;;
9461;SDS011;4769;42.660;23.262;2024-02-26T04:48:40;18.17;;;15.07;;
9461;SDS011;4769;42.660;23.262;2024-02-26T04:51:06;27.37;;;18.43;;
9461;SDS011;4769;42.660;23.262;2024-02-26T04:53:32;39.33;;;23.33;;
9461;SDS011;4769;42.660;23.262;2024-02-26T04:55:57;53.17;;;28.97;;
9461;SDS011;4769;42.660;23.262;2024-02-26T04:58:23;73.47;;;34.10;;
9461;SDS011;4769;42.660;23.262;2024-02-26T05:00:48;47.53;;;25.50;;
9461;SDS011;4769;42.660;23.262;2024-02-26T05:03:14;28.23;;;19.47;;
9461;SDS011;4769;42.660;23.262;2024-02-26T05:05:40;26.00;;;18.20;;
9461;SDS011;4769;42.660;23.262;2024-02-26T05:08:09;25.10;;;17.43;;
9461;SDS011;4769;42.660;23.262;2024-02-26T05:10:34;21.17;;;17.40;;
9461;SDS011;4769;42.660;23.262;2024-02-26T05:13:04;23.90;;;17.00;;
9461;SDS011;4769;42.660;23.262;2024-02-26T05:15:29;22.53;;;16.17;;
9461;SDS011;4769;42.660;23.262;2024-02-26T05:17:55;21.77;;;16.37;;
9461;SDS011;4769;42.660;23.262;2024-02-26T05:20:20;24.17;;;17.10;;
9461;SDS011;4769;42.660;23.262;2024-02-26T05:22:46;31.37;;;22.03;;
9461;SDS011;4769;42.660;23.262;2024-02-26T05:25:14;32.40;;;22.47;;
9461;SDS011;4769;42.660;23.262;2024-02-26T05:27:40;26.80;;;19.03;;
9461;SDS011;4769;42.660;23.262;2024-02-26T05:30:05;25.07;;;19.27;;
9461;SDS011;4769;42.660;23.262;2024-02-26T05:32:31;23.00;;;17.60;;
9461;SDS011;4769;42.660;23.262;2024-02-26T05:34:57;21.10;;;16.47;;
9461;SDS011;4769;42.660;23.262;2024-02-26T05:37:22;26.93;;;16.73;;
9461;SDS011;4769;42.660;23.262;2024-02-26T05:39:47;23.67;;;16.40;;
9461;SDS011;4769;42.660;23.262;2024-02-26T05:42:13;22.27;;;16.70;;
9461;SDS011;4769;42.660;23.262;2024-02-26T05:44:38;26.17;;;17.97;;
9461;SDS011;4769;42.660;23.262;2024-02-26T05:47:04;27.63;;;19.10;;
9461;SDS011;4769;42.660;23.262;2024-02-26T05:49:29;27.13;;;19.07;;
9461;SDS011;4769;42.660;23.262;2024-02-26T05:51:55;32.83;;;21.37;;
9461;SDS011;4769;42.660;23.262;2024-02-26T05:54:20;33.23;;;22.13;;
9461;SDS011;4769;42.660;23.262;2024-02-26T05:56:46;28.13;;;20.98;;
9461;SDS011;4769;42.660;23.262;2024-02-26T05:59:11;36.17;;;23.23;;
9461;SDS011;4769;42.660;23.262;2024-02-26T06:01:36;32.30;;;23.27;;
9461;SDS011;4769;42.660;23.262;2024-02-26T06:04:02;42.43;;;24.17;;
9461;SDS011;4769;42.660;23.262;2024-02-26T06:06:27;46.43;;;31.33;;
9461;SDS011;4769;42.660;23.262;2024-02-26T06:08:53;38.23;;;26.17;;
9461;SDS011;4769;42.660;23.262;2024-02-26T06:11:18;33.63;;;24.30;;
9461;SDS011;4769;42.660;23.262;2024-02-26T06:13:44;32.63;;;23.73;;
9461;SDS011;4769;42.660;23.262;2024-02-26T06:16:09;36.97;;;24.03;;
9461;SDS011;4769;42.660;23.262;2024-02-26T06:18:35;39.17;;;26.17;;
9461;SDS011;4769;42.660;23.262;2024-02-26T06:21:00;31.15;;;24.35;;
9461;SDS011;4769;42.660;23.262;2024-02-26T06:23:26;32.53;;;23.80;;
9461;SDS011;4769;42.660;23.262;2024-02-26T06:25:51;38.33;;;23.60;;
9461;SDS011;4769;42.660;23.262;2024-02-26T06:28:17;41.38;;;25.15;;
9461;SDS011;4769;42.660;23.262;2024-02-26T06:30:42;43.93;;;25.20;;
9461;SDS011;4769;42.660;23.262;2024-02-26T06:33:08;40.43;;;25.07;;
9461;SDS011;4769;42.660;23.262;2024-02-26T06:35:33;37.78;;;24.35;;
9461;SDS011;4769;42.660;23.262;2024-02-26T06:37:59;37.40;;;25.15;;
9461;SDS011;4769;42.660;23.262;2024-02-26T06:40:24;38.17;;;24.33;;
9461;SDS011;4769;42.660;23.262;2024-02-26T06:42:50;32.97;;;23.70;;
9461;SDS011;4769;42.660;23.262;2024-02-26T06:45:16;39.08;;;23.38;;
9461;SDS011;4769;42.660;23.262;2024-02-26T06:47:41;31.98;;;23.33;;
9461;SDS011;4769;42.660;23.262;2024-02-26T06:50:07;32.05;;;23.25;;
9461;SDS011;4769;42.660;23.262;2024-02-26T06:52:33;31.88;;;23.90;;
9461;SDS011;4769;42.660;23.262;2024-02-26T06:54:59;34.60;;;24.13;;
9461;SDS011;4769;42.660;23.262;2024-02-26T06:57:24;31.38;;;23.50;;
9461;SDS011;4769;42.660;23.262;2024-02-26T06:59:50;30.02;;;23.65;;
9461;SDS011;4769;42.660;23.262;2024-02-26T07:02:16;31.17;;;24.50;;
9461;SDS011;4769;42.660;23.262;2024-02-26T07:04:42;32.10;;;25.42;;
9461;SDS011;4769;42.660;23.262;2024-02-26T07:07:08;39.33;;;28.17;;
9461;SDS011;4769;42.660;23.262;2024-02-26T07:09:33;34.53;;;27.33;;
9461;SDS011;4769;42.660;23.262;2024-02-26T07:11:59;32.63;;;27.67;;
9461;SDS011;4769;42.660;23.262;2024-02-26T07:14:24;35.20;;;27.92;;
9461;SDS011;4769;42.660;23.262;2024-02-26T07:16:50;35.50;;;27.77;;
9461;SDS011;4769;42.660;23.262;2024-02-26T07:19:15;36.25;;;28.40;;
9461;SDS011;4769;42.660;23.262;2024-02-26T07:21:41;37.00;;;28.55;;
9461;SDS011;4769;42.660;23.262;2024-02-26T07:24:06;37.63;;;28.75;;
9461;SDS011;4769;42.660;23.262;2024-02-26T07:26:32;35.67;;;28.95;;
9461;SDS011;4769;42.660;23.262;2024-02-26T07:28:57;36.90;;;28.13;;
9461;SDS011;4769;42.660;23.262;2024-02-26T07:31:23;34.92;;;28.05;;
9461;SDS011;4769;42.660;23.262;2024-02-26T07:33:48;36.92;;;26.88;;
9461;SDS011;4769;42.660;23.262;2024-02-26T07:36:14;37.88;;;26.50;;
9461;SDS011;4769;42.660;23.262;2024-02-26T07:38:39;35.25;;;27.85;;
9461;SDS011;4769;42.660;23.262;2024-02-26T07:41:05;37.55;;;26.42;;
9461;SDS011;4769;42.660;23.262;2024-02-26T07:43:30;34.33;;;26.42;;
9461;SDS011;4769;42.660;23.262;2024-02-26T07:45:55;34.90;;;26.65;;
9461;SDS011;4769;42.660;23.262;2024-02-26T07:48:21;35.10;;;25.90;;
9461;SDS011;4769;42.660;23.262;2024-02-26T07:50:46;38.00;;;27.65;;
9461;SDS011;4769;42.660;23.262;2024-02-26T07:53:12;40.75;;;27.70;;
9461;SDS011;4769;42.660;23.262;2024-02-26T07:55:38;31.42;;;26.10;;
9461;SDS011;4769;42.660;23.262;2024-02-26T07:58:04;37.17;;;26.80;;
9461;SDS011;4769;42.660;23.262;2024-02-26T08:00:29;33.28;;;26.02;;
9461;SDS011;4769;42.660;23.262;2024-02-26T08:02:55;36.13;;;25.33;;
9461;SDS011;4769;42.660;23.262;2024-02-26T08:05:20;35.63;;;24.60;;
9461;SDS011;4769;42.660;23.262;2024-02-26T08:07:45;34.45;;;25.45;;
9461;SDS011;4769;42.660;23.262;2024-02-26T08:10:11;26.27;;;23.13;;
9461;SDS011;4769;42.660;23.262;2024-02-26T08:12:36;29.60;;;23.13;;
9461;SDS011;4769;42.660;23.262;2024-02-26T08:15:02;31.25;;;22.85;;
9461;SDS011;4769;42.660;23.262;2024-02-26T08:17:28;29.75;;;21.77;;
9461;SDS011;4769;42.660;23.262;2024-02-26T08:19:53;24.42;;;21.23;;
9461;SDS011;4769;42.660;23.262;2024-02-26T08:22:18;23.38;;;17.60;;
9461;SDS011;4769;42.660;23.262;2024-02-26T08:24:44;28.80;;;21.38;;
9461;SDS011;4769;42.660;23.262;2024-02-26T08:27:10;32.47;;;22.77;;
9461;SDS011;4769;42.660;23.262;2024-02-26T08:29:35;30.15;;;24.67;;
9461;SDS011;4769;42.660;23.262;2024-02-26T08:32:01;34.70;;;27.63;;
9461;SDS011;4769;42.660;23.262;2024-02-26T08:34:26;32.35;;;28.40;;
9461;SDS011;4769;42.660;23.262;2024-02-26T08:36:52;37.53;;;29.00;;
9461;SDS011;4769;42.660;23.262;2024-02-26T08:39:17;38.05;;;28.05;;
9461;SDS011;4769;42.660;23.262;2024-02-26T08:41:43;36.65;;;27.38;;
9461;SDS011;4769;42.660;23.262;2024-02-26T08:44:09;38.97;;;29.20;;
9461;SDS011;4769;42.660;23.262;2024-02-26T08:46:35;38.55;;;30.15;;
9461;SDS011;4769;42.660;23.262;2024-02-26T08:49:00;36.38;;;28.77;;
9461;SDS011;4769;42.660;23.262;2024-02-26T08:51:26;40.60;;;28.58;;
9461;SDS011;4769;42.660;23.262;2024-02-26T08:53:51;42.42;;;31.10;;
9461;SDS011;4769;42.660;23.262;2024-02-26T08:56:16;41.65;;;29.95;;
9461;SDS011;4769;42.660;23.262;2024-02-26T08:58:42;41.45;;;32.03;;
9461;SDS011;4769;42.660;23.262;2024-02-26T09:01:08;37.38;;;30.58;;
9461;SDS011;4769;42.660;23.262;2024-02-26T09:03:34;40.33;;;29.80;;
9461;SDS011;4769;42.660;23.262;2024-02-26T09:05:59;44.30;;;28.83;;
9461;SDS011;4769;42.660;23.262;2024-02-26T09:08:25;34.13;;;29.45;;
9461;SDS011;4769;42.660;23.262;2024-02-26T09:10:51;38.45;;;29.55;;
9461;SDS011;4769;42.660;23.262;2024-02-26T09:13:17;39.90;;;30.67;;
9461;SDS011;4769;42.660;23.262;2024-02-26T09:15:43;37.60;;;30.83;;
9461;SDS011;4769;42.660;23.262;2024-02-26T09:18:09;39.75;;;29.35;;
9461;SDS011;4769;42.660;23.262;2024-02-26T09:20:35;39.70;;;29.90;;
9461;SDS011;4769;42.660;23.262;2024-02-26T09:23:00;41.20;;;28.58;;
9461;SDS011;4769;42.660;23.262;2024-02-26T09:25:26;37.25;;;29.70;;
9461;SDS011;4769;42.660;23.262;2024-02-26T09:27:51;36.55;;;28.98;;
9461;SDS011;4769;42.660;23.262;2024-02-26T09:30:17;31.05;;;27.45;;
9461;SDS011;4769;42.660;23.262;2024-02-26T09:32:45;36.55;;;28.92;;
9461;SDS011;4769;42.660;23.262;2024-02-26T09:35:13;36.45;;;26.83;;
9461;SDS011;4769;42.660;23.262;2024-02-26T09:37:38;32.33;;;24.75;;
9461;SDS011;4769;42.660;23.262;2024-02-26T09:40:04;30.77;;;23.05;;
9461;SDS011;4769;42.660;23.262;2024-02-26T09:42:31;34.97;;;24.55;;
9461;SDS011;4769;42.660;23.262;2024-02-26T09:44:59;28.23;;;22.38;;
9461;SDS011;4769;42.660;23.262;2024-02-26T09:47:26;23.58;;;19.73;;
9461;SDS011;4769;42.660;23.262;2024-02-26T09:49:55;27.08;;;21.45;;
9461;SDS011;4769;42.660;23.262;2024-02-26T09:52:21;32.00;;;20.60;;
9461;SDS011;4769;42.660;23.262;2024-02-26T09:54:49;29.23;;;19.23;;
9461;SDS011;4769;42.660;23.262;2024-02-26T09:57:15;21.73;;;15.40;;
9461;SDS011;4769;42.660;23.262;2024-02-26T09:59:42;18.52;;;10.00;;
9461;SDS011;4769;42.660;23.262;2024-02-26T10:02:12;14.52;;;9.23;;
9461;SDS011;4769;42.660;23.262;2024-02-26T10:04:39;12.63;;;7.28;;
9461;SDS011;4769;42.660;23.262;2024-02-26T10:07:12;9.98;;;6.82;;
9461;SDS011;4769;42.660;23.262;2024-02-26T10:09:38;14.57;;;7.38;;
9461;SDS011;4769;42.660;23.262;2024-02-26T10:12:05;9.45;;;7.63;;
9461;SDS011;4769;42.660;23.262;2024-02-26T10:14:33;12.13;;;7.70;;
9461;SDS011;4769;42.660;23.262;2024-02-26T10:16:58;10.25;;;6.55;;
9461;SDS011;4769;42.660;23.262;2024-02-26T10:19:29;10.15;;;6.50;;
9461;SDS011;4769;42.660;23.262;2024-02-26T10:21:59;13.73;;;7.35;;
9461;SDS011;4769;42.660;23.262;2024-02-26T10:24:28;12.48;;;6.93;;
9461;SDS011;4769;42.660;23.262;2024-02-26T10:26:54;10.32;;;7.30;;
9461;SDS011;4769;42.660;23.262;2024-02-26T10:29:21;8.80;;;6.93;;
9461;SDS011;4769;42.660;23.262;2024-02-26T10:31:47;10.98;;;7.20;;
9461;SDS011;4769;42.660;23.262;2024-02-26T10:34:14;13.10;;;7.63;;
9461;SDS011;4769;42.660;23.262;2024-02-26T10:36:40;7.38;;;6.70;;
9461;SDS011;4769;42.660;23.262;2024-02-26T10:39:06;8.75;;;6.32;;
9461;SDS011;4769;42.660;23.262;2024-02-26T10:41:35;9.50;;;6.50;;
9461;SDS011;4769;42.660;23.262;2024-02-26T10:44:00;12.40;;;7.60;;
9461;SDS011;4769;42.660;23.262;2024-02-26T10:46:27;10.10;;;6.88;;
9461;SDS011;4769;42.660;23.262;2024-02-26T10:48:53;13.43;;;7.50;;
9461;SDS011;4769;42.660;23.262;2024-02-26T10:51:28;7.45;;;6.20;;
9461;SDS011;4769;42.660;23.262;2024-02-26T10:53:55;9.88;;;7.18;;
9461;SDS011;4769;42.660;23.262;2024-02-26T10:56:26;7.82;;;6.15;;
9461;SDS011;4769;42.660;23.262;2024-02-26T10:58:55;11.32;;;6.70;;
9461;SDS011;4769;42.660;23.262;2024-02-26T11:01:21;12.75;;;7.13;;
9461;SDS011;4769;42.660;23.262;2024-02-26T11:03:51;7.97;;;6.63;;
9461;SDS011;4769;42.660;23.262;2024-02-26T11:06:18;15.82;;;7.13;;
9461;SDS011;4769;42.660;23.262;2024-02-26T11:08:52;12.18;;;7.05;;
9461;SDS011;4769;42.660;23.262;2024-02-26T11:11:19;10.57;;;7.32;;
9461;SDS011;4769;42.660;23.262;2024-02-26T11:13:45;11.55;;;7.70;;
9461;SDS011;4769;42.660;23.262;2024-02-26T11:16:16;9.65;;;7.28;;
9461;SDS011;4769;42.660;23.262;2024-02-26T11:18:43;10.07;;;6.75;;
9461;SDS011;4769;42.660;23.262;2024-02-26T11:21:13;9.40;;;6.55;;
9461;SDS011;4769;42.660;23.262;2024-02-26T11:23:41;10.20;;;6.97;;
9461;SDS011;4769;42.660;23.262;2024-02-26T11:26:06;13.48;;;7.80;;
9461;SDS011;4769;42.660;23.262;2024-02-26T11:28:34;10.98;;;7.40;;
9461;SDS011;4769;42.660;23.262;2024-02-26T11:31:00;9.27;;;6.57;;
9461;SDS011;4769;42.660;23.262;2024-02-26T11:33:27;9.90;;;6.82;;
9461;SDS011;4769;42.660;23.262;2024-02-26T11:35:53;7.78;;;6.97;;
9461;SDS011;4769;42.660;23.262;2024-02-26T11:38:20;9.40;;;7.32;;
9461;SDS011;4769;42.660;23.262;2024-02-26T11:40:47;9.68;;;6.95;;
9461;SDS011;4769;42.660;23.262;2024-02-26T11:43:13;8.30;;;6.75;;
9461;SDS011;4769;42.660;23.262;2024-02-26T11:48:04;14.52;;;8.07;;
9461;SDS011;4769;42.660;23.262;2024-02-26T11:50:40;11.73;;;6.95;;
9461;SDS011;4769;42.660;23.262;2024-02-26T11:53:22;8.75;;;6.72;;
9461;SDS011;4769;42.660;23.262;2024-02-26T12:02:06;8.35;;;6.72;;
9461;SDS011;4769;42.660;23.262;2024-02-26T12:04:32;8.05;;;6.35;;
9461;SDS011;4769;42.660;23.262;2024-02-26T12:06:58;8.02;;;6.10;;
9461;SDS011;4769;42.660;23.262;2024-02-26T12:09:39;12.05;;;6.15;;
9461;SDS011;4769;42.660;23.262;2024-02-26T12:12:09;6.20;;;4.97;;
9461;SDS011;4769;42.660;23.262;2024-02-26T12:14:39;14.45;;;6.10;;
9461;SDS011;4769;42.660;23.262;2024-02-26T12:17:06;6.75;;;5.75;;
9461;SDS011;4769;42.660;23.262;2024-02-26T12:19:43;9.30;;;5.40;;
9461;SDS011;4769;42.660;23.262;2024-02-26T12:22:10;7.03;;;5.30;;
9461;SDS011;4769;42.660;23.262;2024-02-26T12:24:38;9.50;;;5.93;;
9461;SDS011;4769;42.660;23.262;2024-02-26T12:27:03;7.38;;;5.43;;
9461;SDS011;4769;42.660;23.262;2024-02-26T12:29:29;10.25;;;5.63;;
9461;SDS011;4769;42.660;23.262;2024-02-26T12:31:54;10.63;;;6.32;;
9461;SDS011;4769;42.660;23.262;2024-02-26T12:34:20;7.85;;;6.00;;
9461;SDS011;4769;42.660;23.262;2024-02-26T12:36:45;9.05;;;5.82;;
9461;SDS011;4769;42.660;23.262;2024-02-26T12:39:11;11.60;;;7.07;;
9461;SDS011;4769;42.660;23.262;2024-02-26T12:41:37;7.68;;;5.85;;
9461;SDS011;4769;42.660;23.262;2024-02-26T12:44:04;8.15;;;5.88;;
9461;SDS011;4769;42.660;23.262;2024-02-26T12:46:31;7.88;;;5.72;;
9461;SDS011;4769;42.660;23.262;2024-02-26T12:48:57;7.82;;;5.63;;
9461;SDS011;4769;42.660;23.262;2024-02-26T12:51:24;10.40;;;5.45;;
9461;SDS011;4769;42.660;23.262;2024-02-26T12:53:50;8.35;;;5.53;;
9461;SDS011;4769;42.660;23.262;2024-02-26T12:56:17;8.40;;;5.75;;
9461;SDS011;4769;42.660;23.262;2024-02-26T12:58:43;7.03;;;5.47;;
9461;SDS011;4769;42.660;23.262;2024-02-26T13:01:13;8.32;;;5.22;;
9461;SDS011;4769;42.660;23.262;2024-02-26T13:03:40;9.95;;;5.70;;
9461;SDS011;4769;42.660;23.262;2024-02-26T13:06:06;9.70;;;5.60;;
9461;SDS011;4769;42.660;23.262;2024-02-26T13:08:32;8.75;;;5.85;;
9461;SDS011;4769;42.660;23.262;2024-02-26T13:11:01;8.05;;;5.10;;
9461;SDS011;4769;42.660;23.262;2024-02-26T13:13:27;10.70;;;6.53;;
9461;SDS011;4769;42.660;23.262;2024-02-26T13:16:03;10.25;;;5.90;;
9461;SDS011;4769;42.660;23.262;2024-02-26T13:18:30;7.53;;;5.60;;
9461;SDS011;4769;42.660;23.262;2024-02-26T13:21:06;6.82;;;5.13;;
9461;SDS011;4769;42.660;23.262;2024-02-26T13:23:36;6.65;;;4.50;;
9461;SDS011;4769;42.660;23.262;2024-02-26T13:26:02;9.77;;;5.60;;
9461;SDS011;4769;42.660;23.262;2024-02-26T13:28:28;9.65;;;5.82;;
9461;SDS011;4769;42.660;23.262;2024-02-26T13:30:53;10.23;;;5.55;;
9461;SDS011;4769;42.660;23.262;2024-02-26T13:33:24;9.27;;;4.55;;
9461;SDS011;4769;42.660;23.262;2024-02-26T13:35:51;8.48;;;5.20;;
9461;SDS011;4769;42.660;23.262;2024-02-26T13:38:18;10.10;;;5.15;;
9461;SDS011;4769;42.660;23.262;2024-02-26T13:40:43;7.72;;;4.82;;
9461;SDS011;4769;42.660;23.262;2024-02-26T13:43:09;7.93;;;4.93;;
9461;SDS011;4769;42.660;23.262;2024-02-26T13:45:34;7.45;;;4.85;;
9461;SDS011;4769;42.660;23.262;2024-02-26T13:48:01;6.72;;;4.72;;
9461;SDS011;4769;42.660;23.262;2024-02-26T13:50:30;5.43;;;4.72;;
9461;SDS011;4769;42.660;23.262;2024-02-26T13:52:56;7.25;;;5.28;;
9461;SDS011;4769;42.660;23.262;2024-02-26T13:55:22;7.57;;;4.80;;
9461;SDS011;4769;42.660;23.262;2024-02-26T13:57:51;8.88;;;4.70;;
9461;SDS011;4769;42.660;23.262;2024-02-26T14:00:23;8.48;;;5.50;;
9461;SDS011;4769;42.660;23.262;2024-02-26T14:02:52;6.15;;;4.65;;
9461;SDS011;4769;42.660;23.262;2024-02-26T14:05:17;7.80;;;4.60;;
9461;SDS011;4769;42.660;23.262;2024-02-26T14:07:43;9.13;;;4.78;;
9461;SDS011;4769;42.660;23.262;2024-02-26T14:10:08;8.95;;;5.00;;
9461;SDS011;4769;42.660;23.262;2024-02-26T14:12:36;10.23;;;5.00;;
9461;SDS011;4769;42.660;23.262;2024-02-26T14:15:02;7.10;;;4.75;;
9461;SDS011;4769;42.660;23.262;2024-02-26T14:17:30;9.35;;;5.43;;
9461;SDS011;4769;42.660;23.262;2024-02-26T14:19:55;10.98;;;5.82;;
9461;SDS011;4769;42.660;23.262;2024-02-26T14:22:21;8.52;;;5.43;;
9461;SDS011;4769;42.660;23.262;2024-02-26T14:24:46;10.88;;;5.72;;
9461;SDS011;4769;42.660;23.262;2024-02-26T14:27:12;8.07;;;5.65;;
9461;SDS011;4769;42.660;23.262;2024-02-26T14:29:40;8.68;;;4.75;;
9461;SDS011;4769;42.660;23.262;2024-02-26T14:32:08;11.50;;;5.38;;
9461;SDS011;4769;42.660;23.262;2024-02-26T14:34:34;6.30;;;4.68;;
9461;SDS011;4769;42.660;23.262;2024-02-26T14:36:59;8.93;;;4.57;;
9461;SDS011;4769;42.660;23.262;2024-02-26T14:39:24;9.38;;;5.18;;
9461;SDS011;4769;42.660;23.262;2024-02-26T14:41:50;5.88;;;4.40;;
9461;SDS011;4769;42.660;23.262;2024-02-26T14:44:15;7.22;;;4.53;;